Plymouth, MN (55441)

5:10 PM CDT on March 31, 2015 (GMT -0500)
Golden Valley - Medley Hills | | Change Station
CLOSE
Current Station
Personal Weather Station
Location: Minneapolis, MN
Elevation: 935 ft
Nearby Weather Stations

Elev 935 ft 45.01 °N, 93.39 °W | Updated 11 seconds ago

Clear
Clear
64.6 °F
Feels Like 64.6 °F
N
0.0
Wind Variable Wind from SSW
Gusts 0.0 mph

Today
High -- | Low -- °F
--% Chance of Precip.
Yesterday
High -- | Low -- °F
Precip. -- in
6:56 AM 7:39 PM
Waxing Gibbous, 89% visible
Pressure 29.88 in
Visibility 10.0 miles
Clouds Clear
Dew Point 27 °F
Humidity 24%
Rainfall 0.00 in
Snow Depth Not available.
UV 1.0 out of 12
Pollen 6.60 out of 12
Air Quality Not available.
Flu Activity Not available.
METAR KMIC 312153Z 27008KT 10SM CLR 18/M04 A2987 RMK AO2 SLP119 T01781039

More Conditions Fewer Conditions

Pressure 29.88 in
Visibility 10.0 miles
Clouds Clear
Dew Point 27 °F
Humidity 24%
Rainfall 0.00 in
Snow Depth Not available.
UV 1.0 out of 12
Pollen 6.60 out of 12
Air Quality Not available.
Flu Activity Not available.
METAR KMIC 312153Z 27008KT 10SM CLR 18/M04 A2987 RMK AO2 SLP119 T01781039

More Conditions Fewer Conditions

10-Day Weather Forecast

Almanac

Astronomy

Mar. 31, 2015 Rise Set
Actual Time
Civil Twilight
Nautical Twilight
Astronomical Twilight
Moon
Length of Visible Light
Length of Day
Tomorrow will be .
, % of the Moon is Illuminated

Today's Extremes

State Highs State Lows

Community

WunderPhotos

Upload Photos

1,809,853 photos uploaded!

WunderBlogs® & News

Nearby

Air Quality

  Air Quality AQ Index Pollutant
Not available.

Snow Depth

Station Depth Elevation

Earthquake Activity

City Distance Mag. Time & Date
Minimum magnitude displayed is 2.5.

Coastal Water Temperatures

Place Temperature

Stations

Nearby Weather Stations

Station Location Temp. Windchill Dew Point Humidity Wind Precip. Elev Updated Type